createdAt,value
2023-10-26T00:01:37.357Z,73.51
2023-10-26T00:04:07.888Z,73.19
2023-10-26T00:06:38.182Z,73.09
2023-10-26T00:09:11.100Z,74.65
2023-10-26T00:11:41.299Z,74.22
2023-10-26T00:14:11.560Z,74.19
2023-10-26T00:16:41.794Z,74.15
2023-10-26T00:19:12.173Z,74.29
2023-10-26T00:21:42.699Z,73.77
2023-10-26T00:24:15.695Z,74.00
2023-10-26T00:26:46.011Z,74.07
2023-10-26T00:29:16.284Z,74.49
2023-10-26T00:31:46.673Z,74.20
2023-10-26T00:34:16.825Z,74.29
2023-10-26T00:36:47.166Z,74.41
2023-10-26T00:39:20.101Z,73.92
2023-10-26T00:41:50.319Z,74.49
2023-10-26T00:44:20.613Z,74.39
2023-10-26T00:46:51.238Z,74.63
2023-10-26T00:49:23.073Z,74.52
2023-10-26T00:51:55.418Z,74.46
2023-10-26T00:54:30.733Z,74.54
2023-10-26T00:57:01.409Z,74.49
2023-10-26T00:59:32.164Z,74.24
2023-10-26T01:02:04.944Z,74.50
2023-10-26T01:04:35.241Z,74.69
2023-10-26T01:07:05.596Z,74.57
2023-10-26T01:09:38.659Z,74.98
2023-10-26T01:12:09.604Z,74.61
2023-10-26T01:14:40.740Z,74.92
2023-10-26T01:17:11.246Z,76.01
2023-10-26T01:19:42.504Z,75.60
2023-10-26T01:22:15.436Z,75.68
2023-10-26T01:24:45.827Z,75.54
2023-10-26T01:27:16.230Z,75.85
2023-10-26T01:29:46.441Z,76.12
2023-10-26T01:32:17.918Z,75.72
2023-10-26T01:34:48.257Z,76.04
2023-10-26T01:37:21.245Z,75.57
2023-10-26T01:39:51.465Z,75.53
2023-10-26T01:42:21.761Z,75.42
2023-10-26T01:44:52.310Z,75.00
2023-10-26T01:47:22.678Z,75.38
2023-10-26T01:49:53.076Z,75.15
2023-10-26T01:52:25.989Z,75.21
2023-10-26T01:54:56.323Z,75.58
2023-10-26T01:57:26.657Z,75.60
2023-10-26T01:59:57.417Z,75.11
2023-10-26T02:02:28.564Z,75.81
2023-10-26T02:04:59.108Z,75.91
2023-10-26T02:07:31.982Z,75.77
2023-10-26T02:10:02.620Z,75.37
2023-10-26T02:12:33.674Z,75.48
2023-10-26T02:15:03.916Z,75.99
2023-10-26T02:17:34.649Z,75.49
2023-10-26T02:20:05.093Z,75.59
2023-10-26T02:22:38.088Z,75.49
2023-10-26T02:25:08.840Z,75.47
2023-10-26T02:27:39.295Z,75.53
2023-10-26T02:30:10.494Z,75.75
2023-10-26T02:32:40.987Z,75.71
2023-10-26T02:35:11.988Z,75.95
2023-10-26T02:37:45.039Z,76.18
2023-10-26T02:40:15.406Z,76.54
2023-10-26T02:42:45.640Z,76.58
2023-10-26T02:45:17.060Z,76.17
2023-10-26T02:47:47.405Z,76.44
2023-10-26T02:50:17.753Z,76.91
2023-10-26T02:52:54.752Z,76.63
2023-10-26T02:55:24.995Z,76.59
2023-10-26T02:57:55.251Z,76.41
2023-10-26T03:00:26.065Z,77.29
2023-10-26T03:02:56.394Z,76.94
2023-10-26T03:05:26.783Z,77.16
2023-10-26T03:07:59.728Z,76.52
2023-10-26T03:10:30.273Z,76.66
2023-10-26T03:13:00.581Z,76.49
2023-10-26T03:15:30.883Z,76.31
2023-10-26T03:18:01.295Z,76.38
2023-10-26T03:20:31.595Z,76.87
2023-10-26T03:23:04.426Z,76.42
2023-10-26T03:25:34.713Z,76.25
2023-10-26T03:28:08.168Z,76.42
2023-10-26T03:30:38.707Z,76.30
2023-10-26T03:33:09.026Z,76.62
2023-10-26T03:35:39.701Z,77.15
2023-10-26T03:38:12.570Z,77.19
2023-10-26T03:40:42.752Z,77.11
2023-10-26T03:43:13.956Z,76.90
2023-10-26T03:45:44.718Z,77.09
2023-10-26T03:48:15.082Z,76.82
2023-10-26T03:50:46.183Z,76.70
2023-10-26T03:53:19.104Z,76.78
2023-10-26T03:55:49.330Z,76.63
2023-10-26T03:58:19.646Z,77.17
2023-10-26T04:00:50.221Z,76.90
2023-10-26T04:03:20.631Z,77.47
2023-10-26T04:05:51.082Z,77.04
2023-10-26T04:08:23.937Z,76.92
2023-10-26T04:10:54.190Z,77.02
2023-10-26T04:13:24.374Z,77.35
2023-10-26T04:16:02.566Z,77.51
2023-10-26T04:18:33.236Z,77.01
2023-10-26T04:21:03.617Z,76.85
2023-10-26T04:23:36.537Z,77.26
2023-10-26T04:26:06.917Z,77.27
2023-10-26T04:28:47.835Z,77.04
2023-10-26T04:31:22.134Z,77.73
2023-10-26T04:33:52.746Z,77.59
2023-10-26T04:36:23.475Z,77.55
2023-10-26T04:38:56.360Z,77.79
2023-10-26T04:41:28.658Z,78.09
2023-10-26T04:43:58.908Z,77.91
2023-10-26T04:46:29.197Z,77.91
2023-10-26T04:48:59.505Z,77.68
2023-10-26T04:51:30.435Z,77.81
2023-10-26T04:54:03.339Z,77.79
2023-10-26T04:56:33.585Z,77.64
2023-10-26T04:59:03.898Z,77.21
2023-10-26T05:01:34.326Z,77.64
2023-10-26T05:04:04.543Z,77.80
2023-10-26T05:06:36.202Z,77.96
2023-10-26T05:09:09.337Z,77.76
2023-10-26T05:11:39.682Z,77.84
2023-10-26T05:14:10.576Z,77.88
2023-10-26T05:16:41.053Z,77.47
2023-10-26T05:19:13.430Z,77.58
2023-10-26T05:21:43.711Z,77.42
2023-10-26T05:24:16.832Z,77.39
2023-10-26T05:26:47.094Z,77.27
2023-10-26T05:29:17.375Z,77.69
2023-10-26T05:31:47.770Z,77.04
2023-10-26T05:34:18.054Z,77.46
2023-10-26T05:36:48.288Z,77.16
2023-10-26T05:39:21.123Z,77.34
2023-10-26T05:41:48.812Z,76.99
2023-10-26T05:44:19.108Z,77.26
2023-10-26T05:46:49.292Z,77.29
2023-10-26T05:49:19.436Z,77.93
2023-10-26T05:51:49.554Z,77.50
2023-10-26T05:54:22.486Z,77.11
2023-10-26T05:56:52.722Z,77.22
2023-10-26T05:59:22.888Z,77.33
2023-10-26T06:01:53.128Z,77.18
2023-10-26T06:04:23.356Z,77.26
2023-10-26T06:06:53.546Z,77.13
2023-10-26T06:09:26.396Z,77.00
2023-10-26T06:11:56.577Z,77.35
2023-10-26T06:14:27.010Z,76.87
2023-10-26T06:16:57.144Z,76.93
2023-10-26T06:19:27.426Z,76.82
2023-10-26T06:21:57.818Z,76.81
2023-10-26T06:24:30.703Z,76.54
2023-10-26T06:27:01.099Z,76.65
2023-10-26T06:29:31.328Z,77.01
2023-10-26T06:32:01.562Z,76.66
2023-10-26T06:34:32.173Z,76.57
2023-10-26T06:37:02.316Z,76.78
2023-10-26T06:39:35.115Z,76.83
2023-10-26T06:42:05.365Z,77.09
2023-10-26T06:44:35.621Z,76.85
2023-10-26T06:47:06.226Z,76.62
2023-10-26T06:49:36.644Z,76.90
2023-10-26T06:52:07.227Z,77.21
2023-10-26T06:54:40.779Z,77.56
2023-10-26T06:57:11.266Z,78.12
2023-10-26T06:59:42.880Z,77.93
2023-10-26T07:02:13.606Z,78.67
2023-10-26T07:04:44.203Z,78.88
2023-10-26T07:07:16.409Z,79.00
2023-10-26T07:09:49.307Z,78.54
2023-10-26T07:12:19.657Z,78.24
2023-10-26T07:14:54.068Z,77.93
2023-10-26T07:17:25.674Z,77.20
2023-10-26T07:19:55.997Z,77.13
2023-10-26T07:22:27.110Z,76.50
2023-10-26T07:25:00.674Z,75.75
2023-10-26T07:27:30.985Z,75.74
2023-10-26T07:30:01.434Z,75.25
2023-10-26T07:32:32.573Z,74.13
2023-10-26T07:35:03.089Z,73.80
2023-10-26T07:37:33.877Z,74.06
2023-10-26T07:40:28.682Z,74.32
2023-10-26T07:42:57.234Z,73.48
2023-10-26T07:45:28.034Z,72.50
2023-10-26T07:48:01.669Z,72.09
2023-10-26T07:50:32.520Z,71.97
2023-10-26T07:53:04.700Z,71.36
2023-10-26T07:55:38.163Z,70.92
2023-10-26T07:58:08.387Z,71.11
2023-10-26T08:00:40.420Z,71.02
2023-10-26T08:03:10.687Z,70.57
2023-10-26T08:05:40.976Z,70.08
2023-10-26T08:08:11.247Z,69.90
2023-10-26T08:10:44.359Z,69.55
2023-10-26T08:13:14.624Z,69.21
2023-10-26T08:16:29.304Z,69.05
2023-10-26T08:18:36.921Z,68.72
2023-10-26T08:21:07.489Z,68.46
2023-10-26T08:23:37.822Z,68.69
2023-10-26T08:26:14.583Z,68.29
2023-10-26T08:28:44.915Z,68.28
2023-10-26T08:31:15.318Z,67.88
2023-10-26T08:33:45.743Z,67.46
2023-10-26T08:36:16.104Z,66.63
2023-10-26T08:38:46.683Z,66.29
2023-10-26T08:41:19.622Z,65.04
2023-10-26T08:43:50.009Z,64.73
2023-10-26T08:46:21.813Z,63.98
2023-10-26T08:48:52.640Z,63.52
2023-10-26T08:51:23.061Z,62.08
2023-10-26T08:53:54.763Z,61.34
2023-10-26T08:56:28.636Z,61.39
2023-10-26T08:58:59.416Z,59.58
2023-10-26T09:01:29.940Z,59.42
2023-10-26T09:04:00.348Z,57.99
2023-10-26T09:06:46.176Z,57.27
2023-10-26T09:09:16.580Z,56.14
2023-10-26T09:11:50.466Z,55.27
2023-10-26T09:14:21.345Z,54.30
2023-10-26T09:16:54.318Z,57.67
2023-10-26T09:19:24.789Z,58.27
2023-10-26T09:21:56.853Z,57.65
2023-10-26T09:24:28.887Z,56.76
2023-10-26T09:27:03.556Z,56.46
2023-10-26T09:29:40.121Z,54.95
2023-10-26T09:32:10.908Z,53.69
2023-10-26T09:34:45.013Z,53.90
2023-10-26T09:37:15.812Z,53.55
2023-10-26T09:39:46.505Z,53.44
2023-10-26T09:42:20.557Z,54.61
2023-10-26T09:44:50.837Z,54.41
2023-10-26T09:47:23.234Z,54.66
2023-10-26T09:49:56.860Z,55.25
2023-10-26T09:52:27.229Z,49.86
2023-10-26T09:54:58.260Z,50.18
2023-10-26T09:57:34.473Z,49.46
2023-10-26T10:00:04.718Z,49.42
2023-10-26T10:02:43.509Z,48.23
2023-10-26T10:05:28.458Z,46.82
2023-10-26T10:07:58.686Z,44.90
2023-10-26T10:10:29.044Z,45.81
2023-10-26T10:13:01.938Z,45.94
2023-10-26T10:15:43.253Z,45.24
2023-10-26T10:18:11.522Z,46.35
2023-10-26T10:20:42.400Z,46.17
2023-10-26T10:23:12.975Z,46.72
2023-10-26T10:26:05.761Z,45.04
2023-10-26T10:28:57.428Z,45.86
2023-10-26T10:31:39.075Z,45.31
2023-10-26T10:34:12.542Z,46.06
2023-10-26T10:36:57.757Z,44.71
2023-10-26T10:39:28.095Z,43.74
2023-10-26T10:41:58.509Z,45.16
2023-10-26T10:44:31.847Z,45.69
2023-10-26T10:47:01.981Z,44.69
2023-10-26T10:49:32.149Z,45.35
2023-10-26T10:52:02.506Z,45.37
2023-10-26T10:54:48.198Z,44.62
2023-10-26T10:57:23.064Z,45.62
2023-10-26T10:59:58.599Z,44.95
2023-10-26T11:02:29.030Z,45.29
2023-10-26T11:05:12.381Z,44.85
2023-10-26T11:07:46.485Z,44.74
2023-10-26T11:10:16.723Z,44.55
2023-10-26T11:12:53.115Z,44.41
2023-10-26T11:15:34.172Z,44.84
2023-10-26T11:18:05.035Z,43.39
2023-10-26T11:20:39.132Z,43.66
2023-10-26T11:23:09.865Z,44.08
2023-10-26T11:25:40.289Z,45.19
2023-10-26T11:28:10.925Z,44.58
2023-10-26T11:30:53.110Z,44.03
2023-10-26T11:33:36.221Z,45.00
2023-10-26T11:36:10.763Z,44.73
2023-10-26T11:38:49.073Z,46.50
2023-10-26T11:41:29.600Z,45.06
2023-10-26T11:44:00.169Z,45.15
2023-10-26T11:46:37.150Z,44.68
2023-10-26T11:49:08.243Z,45.90
2023-10-26T11:51:44.451Z,44.63
2023-10-26T11:54:18.663Z,42.90
2023-10-26T11:56:48.881Z,43.20
2023-10-26T11:59:19.211Z,42.07
2023-10-26T12:01:52.081Z,42.47
2023-10-26T12:04:22.344Z,41.87
2023-10-26T12:06:52.622Z,41.75
2023-10-26T12:09:23.048Z,41.28
2023-10-26T12:11:53.261Z,40.75
2023-10-26T12:14:23.632Z,40.53
2023-10-26T12:16:58.881Z,39.45
2023-10-26T12:19:29.090Z,40.49
2023-10-26T12:21:59.315Z,40.59
2023-10-26T12:24:29.607Z,39.44
2023-10-26T12:26:59.846Z,39.77
2023-10-26T12:29:30.653Z,39.54
2023-10-26T12:32:03.955Z,38.55
2023-10-26T12:34:34.772Z,38.67
2023-10-26T12:37:05.040Z,38.96
2023-10-26T12:39:35.460Z,38.64
2023-10-26T12:42:05.699Z,38.84
2023-10-26T12:44:36.123Z,39.72
2023-10-26T12:47:09.216Z,39.82
2023-10-26T12:49:39.599Z,40.03
2023-10-26T12:52:09.945Z,40.50
2023-10-26T12:54:40.156Z,41.03
2023-10-26T12:57:10.408Z,41.14
2023-10-26T12:59:40.653Z,40.92
2023-10-26T13:02:13.502Z,41.56
2023-10-26T13:04:43.957Z,41.28
2023-10-26T13:07:14.365Z,41.83
2023-10-26T13:09:46.089Z,41.71
2023-10-26T13:12:16.498Z,41.38
2023-10-26T13:14:47.849Z,42.00
2023-10-26T13:17:24.183Z,42.47
2023-10-26T13:19:54.396Z,42.81
2023-10-26T13:22:24.870Z,43.13
2023-10-26T13:24:55.222Z,43.09
2023-10-26T13:27:27.078Z,43.49
2023-10-26T13:30:00.902Z,42.89
2023-10-26T13:32:33.706Z,43.88
2023-10-26T13:35:04.222Z,43.59
2023-10-26T13:37:34.507Z,43.23
2023-10-26T13:40:05.053Z,43.58
2023-10-26T13:42:35.285Z,44.11
2023-10-26T13:45:05.541Z,43.38
2023-10-26T13:47:38.479Z,43.94
2023-10-26T13:50:09.359Z,43.87
2023-10-26T13:52:39.622Z,43.55
2023-10-26T13:55:10.258Z,43.32
2023-10-26T13:57:40.657Z,43.91
2023-10-26T14:00:13.426Z,43.63
2023-10-26T14:02:46.507Z,43.63
2023-10-26T14:05:30.306Z,43.75
2023-10-26T14:08:01.232Z,44.10
2023-10-26T14:10:31.543Z,44.17
2023-10-26T14:13:01.783Z,44.34
2023-10-26T14:15:31.999Z,44.36
2023-10-26T14:18:05.074Z,44.53
2023-10-26T14:20:35.251Z,45.57
2023-10-26T14:23:07.007Z,46.62
2023-10-26T14:25:39.632Z,46.90
2023-10-26T14:28:09.792Z,47.90
2023-10-26T14:30:40.023Z,50.24
2023-10-26T14:33:12.999Z,51.20
2023-10-26T14:35:43.296Z,52.67
2023-10-26T14:38:13.615Z,54.88
2023-10-26T14:40:43.789Z,55.49
2023-10-26T14:43:14.032Z,56.38
2023-10-26T14:45:44.401Z,57.33
2023-10-26T14:48:17.279Z,57.39
2023-10-26T14:50:47.605Z,57.89
2023-10-26T14:53:18.116Z,58.71
2023-10-26T14:55:48.566Z,58.72
2023-10-26T14:58:18.888Z,59.47
2023-10-26T15:00:49.337Z,60.29
2023-10-26T15:03:22.238Z,59.72
2023-10-26T15:05:52.604Z,60.02
2023-10-26T15:08:22.905Z,60.35
2023-10-26T15:10:54.977Z,60.58
2023-10-26T15:13:45.206Z,60.44
2023-10-26T15:16:15.764Z,60.98
2023-10-26T15:18:48.655Z,60.98
2023-10-26T15:21:18.842Z,60.85
2023-10-26T15:23:48.985Z,60.72
2023-10-26T15:26:19.151Z,60.99
2023-10-26T15:28:49.504Z,61.48
2023-10-26T15:31:19.807Z,62.15
2023-10-26T15:33:52.821Z,62.73
2023-10-26T15:36:23.160Z,59.95
2023-10-26T15:38:53.424Z,59.93
2023-10-26T15:41:23.590Z,59.77
2023-10-26T15:43:54.488Z,59.89
2023-10-26T15:46:24.723Z,59.83
2023-10-26T15:49:33.667Z,59.56
2023-10-26T15:51:54.471Z,59.26
2023-10-26T15:54:24.823Z,59.45
2023-10-26T15:56:55.024Z,58.56
2023-10-26T15:59:27.085Z,59.01
2023-10-26T16:01:57.372Z,59.13
2023-10-26T16:04:31.153Z,59.55
2023-10-26T16:07:01.396Z,60.01
2023-10-26T16:09:34.200Z,59.94
2023-10-26T16:12:06.461Z,59.57
2023-10-26T16:14:36.644Z,59.93
2023-10-26T16:17:07.069Z,59.88
2023-10-26T16:19:39.940Z,60.40
2023-10-26T16:22:10.430Z,59.54
2023-10-26T16:24:41.181Z,59.03
2023-10-26T16:27:11.444Z,59.87
2023-10-26T16:29:41.846Z,59.42
2023-10-26T16:32:12.210Z,59.86
2023-10-26T16:34:45.861Z,60.80
2023-10-26T16:37:16.108Z,62.07
2023-10-26T16:39:46.540Z,62.15
2023-10-26T16:42:16.902Z,61.66
2023-10-26T16:44:47.542Z,62.24
2023-10-26T16:47:17.921Z,61.68
2023-10-26T16:49:50.738Z,62.83
2023-10-26T16:52:21.148Z,63.17
2023-10-26T16:54:51.555Z,63.16
2023-10-26T17:00:24.364Z,63.39
2023-10-26T17:02:55.888Z,63.43
2023-10-26T17:05:29.410Z,62.90
2023-10-26T17:08:02.368Z,63.64
2023-10-26T17:10:33.395Z,63.16
2023-10-26T17:13:06.082Z,63.36
2023-10-26T17:15:37.105Z,63.70
2023-10-26T17:18:07.857Z,63.21
2023-10-26T17:20:41.232Z,63.08
2023-10-26T17:23:12.022Z,62.83
2023-10-26T17:25:43.201Z,62.53
2023-10-26T17:28:14.549Z,62.62
2023-10-26T17:30:45.202Z,62.38
2023-10-26T17:33:17.527Z,62.71
2023-10-26T17:35:54.204Z,62.53
2023-10-26T17:38:25.130Z,62.19
2023-10-26T17:40:55.619Z,62.26
2023-10-26T17:43:26.115Z,62.71
2023-10-26T17:45:57.732Z,62.89
2023-10-26T17:48:29.294Z,62.78
2023-10-26T17:51:05.266Z,63.25
2023-10-26T17:53:36.019Z,62.58
2023-10-26T17:56:09.167Z,63.48
2023-10-26T17:58:39.741Z,62.89
2023-10-26T18:01:11.547Z,63.40
2023-10-26T18:03:42.684Z,63.44
2023-10-26T18:06:16.989Z,64.17
2023-10-26T18:08:47.461Z,63.56
2023-10-26T18:11:18.108Z,63.95
2023-10-26T18:13:48.631Z,63.97
2023-10-26T18:16:19.749Z,63.57
2023-10-26T18:18:50.806Z,63.72
2023-10-26T18:21:24.612Z,64.03
2023-10-26T18:23:56.420Z,63.81
2023-10-26T18:26:27.264Z,64.30
2023-10-26T18:28:58.424Z,64.03
2023-10-26T18:31:29.137Z,64.10
2023-10-26T18:34:00.423Z,65.53
2023-10-26T18:36:36.719Z,65.29
2023-10-26T18:39:08.034Z,65.73
2023-10-26T18:41:39.805Z,66.10
2023-10-26T18:44:10.894Z,66.13
2023-10-26T18:46:41.680Z,65.91
2023-10-26T18:49:12.640Z,65.88
2023-10-26T18:51:46.185Z,65.78
2023-10-26T18:54:18.506Z,65.59
2023-10-26T18:56:49.453Z,65.58
2023-10-26T18:59:21.151Z,65.67
2023-10-26T19:01:52.226Z,65.35
2023-10-26T19:04:23.969Z,65.44
2023-10-26T19:06:58.568Z,65.43
2023-10-26T19:09:31.437Z,65.38
2023-10-26T19:12:02.562Z,65.49
2023-10-26T19:14:33.629Z,65.76
2023-10-26T19:17:05.103Z,65.05
2023-10-26T19:19:35.671Z,65.21
2023-10-26T19:22:09.013Z,65.26
2023-10-26T19:24:39.755Z,65.49
2023-10-26T19:27:10.671Z,65.54
2023-10-26T19:29:42.104Z,65.37
2023-10-26T19:32:12.665Z,65.27
2023-10-26T19:34:45.890Z,65.84
2023-10-26T19:37:21.845Z,65.64
2023-10-26T19:39:53.620Z,65.76
2023-10-26T19:45:15.734Z,66.15
2023-10-26T19:47:47.018Z,65.70
2023-10-26T19:50:19.199Z,65.81
2023-10-26T19:52:52.625Z,65.93
2023-10-26T19:55:23.901Z,66.03
2023-10-26T19:57:54.891Z,65.96
2023-10-26T20:00:26.594Z,66.74
2023-10-26T20:02:57.579Z,66.56
2023-10-26T20:05:28.713Z,66.94
2023-10-26T20:08:03.774Z,67.23
2023-10-26T20:10:34.387Z,67.44
2023-10-26T20:13:05.001Z,66.92
2023-10-26T20:15:35.987Z,67.58
2023-10-26T20:18:09.161Z,67.30
2023-10-26T20:20:39.641Z,67.57
2023-10-26T20:23:13.039Z,67.82
2023-10-26T20:25:45.075Z,66.43
2023-10-26T20:28:17.517Z,68.10
2023-10-26T20:30:48.261Z,66.81
2023-10-26T20:33:19.522Z,64.07
2023-10-26T20:35:52.830Z,61.20
2023-10-26T20:38:26.319Z,58.53
2023-10-26T20:40:58.334Z,57.36
2023-10-26T20:43:29.008Z,56.32
2023-10-26T20:46:01.791Z,55.39
2023-10-26T20:48:32.583Z,55.22
2023-10-26T20:51:09.517Z,55.18
2023-10-26T20:53:43.245Z,56.00
2023-10-26T20:56:14.355Z,56.88
2023-10-26T20:58:57.081Z,57.55
2023-10-26T21:05:03.699Z,59.24
2023-10-26T21:11:34.709Z,60.91
2023-10-26T21:25:02.286Z,63.05
2023-10-26T21:27:54.401Z,64.12
2023-10-26T21:30:26.683Z,64.06
2023-10-26T21:32:57.204Z,64.33
2023-10-26T21:35:28.597Z,64.80
2023-10-26T21:37:58.962Z,65.28
2023-10-26T21:40:29.246Z,65.89
2023-10-26T21:43:02.242Z,66.06
2023-10-26T21:45:32.575Z,65.80
2023-10-26T21:48:03.042Z,65.90
2023-10-26T21:50:35.207Z,66.67
2023-10-26T21:53:15.234Z,66.68
2023-10-26T21:55:47.261Z,67.14
2023-10-26T21:58:20.410Z,67.51
2023-10-26T22:00:54.655Z,67.57
2023-10-26T22:03:25.702Z,68.44
2023-10-26T22:05:56.179Z,67.77
2023-10-26T22:08:26.647Z,67.94
2023-10-26T22:10:57.518Z,67.88
2023-10-26T22:13:30.755Z,68.46
2023-10-26T22:16:01.535Z,68.32
2023-10-26T22:18:32.033Z,68.61
2023-10-26T22:21:04.498Z,68.18
2023-10-26T22:23:34.887Z,68.47
2023-10-26T22:26:05.537Z,68.79
2023-10-26T22:28:38.779Z,68.62
2023-10-26T22:31:09.916Z,69.01
2023-10-26T22:33:40.568Z,68.81
2023-10-26T22:36:11.639Z,69.23
2023-10-26T22:38:42.072Z,69.76
2023-10-26T22:41:12.679Z,69.57
2023-10-26T22:43:45.777Z,69.81
2023-10-26T22:46:16.142Z,70.09
2023-10-26T22:48:46.456Z,70.40
2023-10-26T22:51:16.896Z,70.68
2023-10-26T22:53:47.361Z,70.55
2023-10-26T22:56:21.456Z,70.00
2023-10-26T22:58:54.774Z,70.05
2023-10-26T23:01:25.081Z,70.53
2023-10-26T23:03:55.527Z,70.27
2023-10-26T23:06:29.837Z,70.03
2023-10-26T23:09:04.884Z,70.37
2023-10-26T23:11:35.464Z,70.44
2023-10-26T23:14:08.726Z,70.09
2023-10-26T23:16:39.781Z,70.17
2023-10-26T23:19:10.306Z,70.52
2023-10-26T23:21:40.715Z,70.32
2023-10-26T23:24:11.266Z,70.11
2023-10-26T23:26:42.235Z,70.49
2023-10-26T23:29:15.115Z,71.20
2023-10-26T23:31:45.502Z,70.35
2023-10-26T23:34:16.159Z,70.32
2023-10-26T23:36:46.742Z,70.89
2023-10-26T23:39:17.225Z,70.87
2023-10-26T23:41:47.596Z,70.95
2023-10-26T23:44:20.795Z,70.80
2023-10-26T23:46:51.119Z,71.46
2023-10-26T23:49:21.519Z,71.14
2023-10-26T23:51:51.879Z,70.68
2023-10-26T23:54:22.982Z,70.82
2023-10-26T23:56:53.255Z,71.35
2023-10-26T23:59:26.348Z,70.85
